sensor_id;sensor_type;location;lat;lon;timestamp;temperature;humidity
8178;DHT22;4130;48.740;9.132;2023-08-06T00:00:39;14.80;99.90
8178;DHT22;4130;48.740;9.132;2023-08-06T00:03:05;14.80;99.90
8178;DHT22;4130;48.740;9.132;2023-08-06T00:05:33;14.80;99.90
8178;DHT22;4130;48.740;9.132;2023-08-06T00:08:00;14.70;99.90
8178;DHT22;4130;48.740;9.132;2023-08-06T00:10:28;14.70;99.90
8178;DHT22;4130;48.740;9.132;2023-08-06T00:12:54;14.50;99.90
8178;DHT22;4130;48.740;9.132;2023-08-06T00:15:22;14.40;99.90
8178;DHT22;4130;48.740;9.132;2023-08-06T00:17:49;14.40;99.90
8178;DHT22;4130;48.740;9.132;2023-08-06T00:20:16;14.30;99.90
8178;DHT22;4130;48.740;9.132;2023-08-06T00:22:42;14.20;99.90
8178;DHT22;4130;48.740;9.132;2023-08-06T00:25:09;14.20;99.90
8178;DHT22;4130;48.740;9.132;2023-08-06T00:27:37;14.10;99.90
8178;DHT22;4130;48.740;9.132;2023-08-06T00:30:06;14.10;99.90
8178;DHT22;4130;48.740;9.132;2023-08-06T00:32:32;14.00;99.90
8178;DHT22;4130;48.740;9.132;2023-08-06T00:34:59;14.00;99.90
8178;DHT22;4130;48.740;9.132;2023-08-06T00:37:26;13.90;99.90
8178;DHT22;4130;48.740;9.132;2023-08-06T00:39:53;13.80;99.90
8178;DHT22;4130;48.740;9.132;2023-08-06T00:42:20;13.80;99.90
8178;DHT22;4130;48.740;9.132;2023-08-06T00:44:49;13.90;99.90
8178;DHT22;4130;48.740;9.132;2023-08-06T00:47:16;13.70;99.90
8178;DHT22;4130;48.740;9.132;2023-08-06T00:49:43;13.70;99.90
8178;DHT22;4130;48.740;9.132;2023-08-06T00:52:10;13.70;99.90
8178;DHT22;4130;48.740;9.132;2023-08-06T00:54:38;13.80;99.90
8178;DHT22;4130;48.740;9.132;2023-08-06T00:57:07;13.60;99.90
8178;DHT22;4130;48.740;9.132;2023-08-06T00:59:34;13.50;99.90
8178;DHT22;4130;48.740;9.132;2023-08-06T01:02:05;13.40;99.90
8178;DHT22;4130;48.740;9.132;2023-08-06T01:04:32;13.40;99.90
8178;DHT22;4130;48.740;9.132;2023-08-06T01:07:09;13.40;99.90
8178;DHT22;4130;48.740;9.132;2023-08-06T01:09:48;13.40;99.90
8178;DHT22;4130;48.740;9.132;2023-08-06T01:12:24;13.40;99.90
8178;DHT22;4130;48.740;9.132;2023-08-06T01:14:58;13.10;99.90
8178;DHT22;4130;48.740;9.132;2023-08-06T01:17:30;13.20;99.90
8178;DHT22;4130;48.740;9.132;2023-08-06T01:19:57;13.20;99.90
8178;DHT22;4130;48.740;9.132;2023-08-06T01:22:25;13.20;99.90
8178;DHT22;4130;48.740;9.132;2023-08-06T01:24:53;13.10;99.90
8178;DHT22;4130;48.740;9.132;2023-08-06T01:27:25;13.20;99.90
8178;DHT22;4130;48.740;9.132;2023-08-06T01:29:59;13.20;99.90
8178;DHT22;4130;48.740;9.132;2023-08-06T01:32:27;13.60;99.90
8178;DHT22;4130;48.740;9.132;2023-08-06T01:34:57;13.30;99.90
8178;DHT22;4130;48.740;9.132;2023-08-06T01:37:27;13.30;99.90
8178;DHT22;4130;48.740;9.132;2023-08-06T01:39:54;13.40;99.90
8178;DHT22;4130;48.740;9.132;2023-08-06T01:42:21;13.60;99.90
8178;DHT22;4130;48.740;9.132;2023-08-06T01:44:47;13.30;99.90
8178;DHT22;4130;48.740;9.132;2023-08-06T01:47:14;13.40;99.90
8178;DHT22;4130;48.740;9.132;2023-08-06T01:49:41;13.40;99.90
8178;DHT22;4130;48.740;9.132;2023-08-06T01:52:08;13.40;99.90
8178;DHT22;4130;48.740;9.132;2023-08-06T01:54:36;13.30;99.90
8178;DHT22;4130;48.740;9.132;2023-08-06T01:57:03;13.60;99.90
8178;DHT22;4130;48.740;9.132;2023-08-06T01:59:30;13.20;99.90
8178;DHT22;4130;48.740;9.132;2023-08-06T02:01:57;13.10;99.90
8178;DHT22;4130;48.740;9.132;2023-08-06T02:04:24;13.10;99.90
8178;DHT22;4130;48.740;9.132;2023-08-06T02:06:50;13.00;99.90
8178;DHT22;4130;48.740;9.132;2023-08-06T02:09:17;13.10;99.90
8178;DHT22;4130;48.740;9.132;2023-08-06T02:11:45;13.00;99.90
8178;DHT22;4130;48.740;9.132;2023-08-06T02:14:19;13.60;99.90
8178;DHT22;4130;48.740;9.132;2023-08-06T02:16:46;12.80;99.90
8178;DHT22;4130;48.740;9.132;2023-08-06T02:19:13;13.00;99.90
8178;DHT22;4130;48.740;9.132;2023-08-06T02:21:39;12.90;99.90
8178;DHT22;4130;48.740;9.132;2023-08-06T02:24:06;12.80;99.90
8178;DHT22;4130;48.740;9.132;2023-08-06T02:26:33;12.80;99.90
8178;DHT22;4130;48.740;9.132;2023-08-06T02:29:01;12.80;99.90
8178;DHT22;4130;48.740;9.132;2023-08-06T02:31:28;12.80;99.90
8178;DHT22;4130;48.740;9.132;2023-08-06T02:33:54;12.80;99.90
8178;DHT22;4130;48.740;9.132;2023-08-06T02:36:21;12.80;99.90
8178;DHT22;4130;48.740;9.132;2023-08-06T02:38:48;12.70;99.90
8178;DHT22;4130;48.740;9.132;2023-08-06T02:41:15;12.80;99.90
8178;DHT22;4130;48.740;9.132;2023-08-06T02:43:42;12.70;99.90
8178;DHT22;4130;48.740;9.132;2023-08-06T02:46:10;12.70;99.90
8178;DHT22;4130;48.740;9.132;2023-08-06T02:48:37;12.80;99.90
8178;DHT22;4130;48.740;9.132;2023-08-06T02:51:04;12.70;99.90
8178;DHT22;4130;48.740;9.132;2023-08-06T02:53:31;12.70;99.90
8178;DHT22;4130;48.740;9.132;2023-08-06T02:55:57;12.60;99.90
8178;DHT22;4130;48.740;9.132;2023-08-06T02:58:25;12.50;99.90
8178;DHT22;4130;48.740;9.132;2023-08-06T03:01:02;12.70;99.90
8178;DHT22;4130;48.740;9.132;2023-08-06T03:03:31;12.70;99.90
8178;DHT22;4130;48.740;9.132;2023-08-06T03:05:58;12.60;99.90
8178;DHT22;4130;48.740;9.132;2023-08-06T03:08:25;12.60;99.90
8178;DHT22;4130;48.740;9.132;2023-08-06T03:10:52;12.70;99.90
8178;DHT22;4130;48.740;9.132;2023-08-06T03:13:19;12.70;99.90
8178;DHT22;4130;48.740;9.132;2023-08-06T03:15:52;12.80;99.90
8178;DHT22;4130;48.740;9.132;2023-08-06T03:18:19;12.80;99.90
8178;DHT22;4130;48.740;9.132;2023-08-06T03:20:48;12.90;99.90
8178;DHT22;4130;48.740;9.132;2023-08-06T03:23:15;12.80;99.90
8178;DHT22;4130;48.740;9.132;2023-08-06T03:25:41;12.90;99.90
8178;DHT22;4130;48.740;9.132;2023-08-06T03:28:08;12.90;99.90
8178;DHT22;4130;48.740;9.132;2023-08-06T03:30:35;13.00;99.90
8178;DHT22;4130;48.740;9.132;2023-08-06T03:33:02;13.00;99.90
8178;DHT22;4130;48.740;9.132;2023-08-06T03:35:28;13.00;99.90
8178;DHT22;4130;48.740;9.132;2023-08-06T03:37:56;13.00;99.90
8178;DHT22;4130;48.740;9.132;2023-08-06T03:40:23;13.10;99.90
8178;DHT22;4130;48.740;9.132;2023-08-06T03:42:50;13.10;99.90
8178;DHT22;4130;48.740;9.132;2023-08-06T03:45:17;13.30;99.90
8178;DHT22;4130;48.740;9.132;2023-08-06T03:47:43;13.00;99.90
8178;DHT22;4130;48.740;9.132;2023-08-06T03:50:10;13.20;99.90
8178;DHT22;4130;48.740;9.132;2023-08-06T03:52:37;13.20;99.90
8178;DHT22;4130;48.740;9.132;2023-08-06T03:55:05;13.30;99.90
8178;DHT22;4130;48.740;9.132;2023-08-06T03:57:32;13.30;99.90
8178;DHT22;4130;48.740;9.132;2023-08-06T03:59:59;13.30;99.90
8178;DHT22;4130;48.740;9.132;2023-08-06T04:02:26;13.30;99.90
8178;DHT22;4130;48.740;9.132;2023-08-06T04:04:53;13.50;99.90
8178;DHT22;4130;48.740;9.132;2023-08-06T04:07:20;14.00;99.90
8178;DHT22;4130;48.740;9.132;2023-08-06T04:09:53;13.50;99.90
8178;DHT22;4130;48.740;9.132;2023-08-06T04:12:22;13.50;99.90
8178;DHT22;4130;48.740;9.132;2023-08-06T04:14:50;13.50;99.90
8178;DHT22;4130;48.740;9.132;2023-08-06T04:17:16;14.10;99.90
8178;DHT22;4130;48.740;9.132;2023-08-06T04:19:46;13.50;99.90
8178;DHT22;4130;48.740;9.132;2023-08-06T04:22:13;13.40;99.90
8178;DHT22;4130;48.740;9.132;2023-08-06T04:24:40;13.40;99.90
8178;DHT22;4130;48.740;9.132;2023-08-06T04:27:08;13.40;99.90
8178;DHT22;4130;48.740;9.132;2023-08-06T04:29:36;13.40;99.90
8178;DHT22;4130;48.740;9.132;2023-08-06T04:32:05;13.40;99.90
8178;DHT22;4130;48.740;9.132;2023-08-06T04:34:32;13.40;99.90
8178;DHT22;4130;48.740;9.132;2023-08-06T04:36:58;13.50;99.90
8178;DHT22;4130;48.740;9.132;2023-08-06T04:39:25;13.40;99.90
8178;DHT22;4130;48.740;9.132;2023-08-06T04:41:52;13.40;99.90
8178;DHT22;4130;48.740;9.132;2023-08-06T04:44:19;13.40;99.90
8178;DHT22;4130;48.740;9.132;2023-08-06T04:46:48;13.50;99.90
8178;DHT22;4130;48.740;9.132;2023-08-06T04:49:15;14.30;99.90
8178;DHT22;4130;48.740;9.132;2023-08-06T04:51:41;13.50;99.90
8178;DHT22;4130;48.740;9.132;2023-08-06T04:54:08;13.50;99.90
8178;DHT22;4130;48.740;9.132;2023-08-06T04:56:35;13.50;99.90
8178;DHT22;4130;48.740;9.132;2023-08-06T04:59:02;13.50;99.90
8178;DHT22;4130;48.740;9.132;2023-08-06T05:01:28;13.50;99.90
8178;DHT22;4130;48.740;9.132;2023-08-06T05:03:56;13.70;99.90
8178;DHT22;4130;48.740;9.132;2023-08-06T05:06:23;13.60;99.90
8178;DHT22;4130;48.740;9.132;2023-08-06T05:08:50;13.80;99.90
8178;DHT22;4130;48.740;9.132;2023-08-06T05:11:16;13.80;99.90
8178;DHT22;4130;48.740;9.132;2023-08-06T05:13:43;13.80;99.90
8178;DHT22;4130;48.740;9.132;2023-08-06T05:16:10;13.70;99.90
8178;DHT22;4130;48.740;9.132;2023-08-06T05:18:37;13.70;99.90
8178;DHT22;4130;48.740;9.132;2023-08-06T05:21:05;13.70;99.90
8178;DHT22;4130;48.740;9.132;2023-08-06T05:23:32;14.40;99.90
8178;DHT22;4130;48.740;9.132;2023-08-06T05:25:58;13.60;99.90
8178;DHT22;4130;48.740;9.132;2023-08-06T05:28:25;13.60;99.90
8178;DHT22;4130;48.740;9.132;2023-08-06T05:30:52;13.60;99.90
8178;DHT22;4130;48.740;9.132;2023-08-06T05:33:19;13.60;99.90
8178;DHT22;4130;48.740;9.132;2023-08-06T05:35:45;13.70;99.90
8178;DHT22;4130;48.740;9.132;2023-08-06T05:38:13;13.80;99.90
8178;DHT22;4130;48.740;9.132;2023-08-06T05:40:40;14.00;99.90
8178;DHT22;4130;48.740;9.132;2023-08-06T05:43:07;14.10;99.90
8178;DHT22;4130;48.740;9.132;2023-08-06T05:45:34;14.10;99.90
8178;DHT22;4130;48.740;9.132;2023-08-06T05:48:00;14.20;99.90
8178;DHT22;4130;48.740;9.132;2023-08-06T05:50:27;14.30;99.90
8178;DHT22;4130;48.740;9.132;2023-08-06T05:52:54;14.40;99.90
8178;DHT22;4130;48.740;9.132;2023-08-06T05:55:22;14.40;99.90
8178;DHT22;4130;48.740;9.132;2023-08-06T05:57:49;14.30;99.90
8178;DHT22;4130;48.740;9.132;2023-08-06T06:00:18;14.40;99.90
8178;DHT22;4130;48.740;9.132;2023-08-06T06:02:46;14.40;99.90
8178;DHT22;4130;48.740;9.132;2023-08-06T06:05:13;14.30;99.90
8178;DHT22;4130;48.740;9.132;2023-08-06T06:07:39;14.30;99.90
8178;DHT22;4130;48.740;9.132;2023-08-06T06:10:07;14.30;99.90
8178;DHT22;4130;48.740;9.132;2023-08-06T06:12:35;14.20;99.90
8178;DHT22;4130;48.740;9.132;2023-08-06T06:15:02;14.30;99.90
8178;DHT22;4130;48.740;9.132;2023-08-06T06:17:29;14.30;99.90
8178;DHT22;4130;48.740;9.132;2023-08-06T06:19:56;13.90;99.90
8178;DHT22;4130;48.740;9.132;2023-08-06T06:22:23;15.50;99.90
8178;DHT22;4130;48.740;9.132;2023-08-06T06:24:49;14.50;99.90
8178;DHT22;4130;48.740;9.132;2023-08-06T06:27:16;14.50;99.90
8178;DHT22;4130;48.740;9.132;2023-08-06T06:29:45;14.50;99.90
8178;DHT22;4130;48.740;9.132;2023-08-06T06:32:11;15.90;99.90
8178;DHT22;4130;48.740;9.132;2023-08-06T06:34:38;14.60;99.90
8178;DHT22;4130;48.740;9.132;2023-08-06T06:37:05;14.50;99.90
8178;DHT22;4130;48.740;9.132;2023-08-06T06:39:32;14.50;99.90
8178;DHT22;4130;48.740;9.132;2023-08-06T06:41:58;16.20;99.90
8178;DHT22;4130;48.740;9.132;2023-08-06T06:44:25;14.70;99.90
8178;DHT22;4130;48.740;9.132;2023-08-06T06:46:53;16.20;99.90
8178;DHT22;4130;48.740;9.132;2023-08-06T06:49:20;15.40;99.90
8178;DHT22;4130;48.740;9.132;2023-08-06T06:51:47;14.90;99.90
8178;DHT22;4130;48.740;9.132;2023-08-06T06:54:14;14.90;99.90
8178;DHT22;4130;48.740;9.132;2023-08-06T06:56:41;16.40;99.90
8178;DHT22;4130;48.740;9.132;2023-08-06T06:59:08;14.80;99.90
8178;DHT22;4130;48.740;9.132;2023-08-06T07:01:34;14.70;99.90
8178;DHT22;4130;48.740;9.132;2023-08-06T07:04:03;14.60;99.90
8178;DHT22;4130;48.740;9.132;2023-08-06T07:06:30;14.50;99.90
8178;DHT22;4130;48.740;9.132;2023-08-06T07:08:57;14.90;99.90
8178;DHT22;4130;48.740;9.132;2023-08-06T07:11:23;15.10;99.90
8178;DHT22;4130;48.740;9.132;2023-08-06T07:13:56;15.10;99.90
8178;DHT22;4130;48.740;9.132;2023-08-06T07:16:23;14.30;99.90
8178;DHT22;4130;48.740;9.132;2023-08-06T07:18:51;14.20;99.90
8178;DHT22;4130;48.740;9.132;2023-08-06T07:21:20;14.10;99.90
8178;DHT22;4130;48.740;9.132;2023-08-06T07:23:47;14.10;99.90
8178;DHT22;4130;48.740;9.132;2023-08-06T07:26:15;14.10;99.90
8178;DHT22;4130;48.740;9.132;2023-08-06T07:28:42;14.00;99.90
8178;DHT22;4130;48.740;9.132;2023-08-06T07:31:08;14.00;99.90
8178;DHT22;4130;48.740;9.132;2023-08-06T07:33:35;14.10;99.90
8178;DHT22;4130;48.740;9.132;2023-08-06T07:36:08;14.10;99.90
8178;DHT22;4130;48.740;9.132;2023-08-06T07:38:36;14.10;99.90
8178;DHT22;4130;48.740;9.132;2023-08-06T07:41:03;14.10;99.90
8178;DHT22;4130;48.740;9.132;2023-08-06T07:43:30;14.10;99.90
8178;DHT22;4130;48.740;9.132;2023-08-06T07:45:58;15.70;99.90
8178;DHT22;4130;48.740;9.132;2023-08-06T07:48:25;14.00;99.90
8178;DHT22;4130;48.740;9.132;2023-08-06T07:50:52;14.10;99.90
8178;DHT22;4130;48.740;9.132;2023-08-06T07:53:19;14.20;99.90
8178;DHT22;4130;48.740;9.132;2023-08-06T07:55:50;14.60;99.90
8178;DHT22;4130;48.740;9.132;2023-08-06T07:58:17;14.20;99.90
8178;DHT22;4130;48.740;9.132;2023-08-06T08:00:44;14.30;99.90
8178;DHT22;4130;48.740;9.132;2023-08-06T08:03:11;15.10;99.90
8178;DHT22;4130;48.740;9.132;2023-08-06T08:05:38;14.70;99.90
8178;DHT22;4130;48.740;9.132;2023-08-06T08:08:05;14.80;99.90
8178;DHT22;4130;48.740;9.132;2023-08-06T08:10:32;14.80;99.90
8178;DHT22;4130;48.740;9.132;2023-08-06T08:13:01;14.70;99.90
8178;DHT22;4130;48.740;9.132;2023-08-06T08:15:28;14.60;99.90
8178;DHT22;4130;48.740;9.132;2023-08-06T08:17:55;14.70;99.90
8178;DHT22;4130;48.740;9.132;2023-08-06T08:20:22;14.80;99.90
8178;DHT22;4130;48.740;9.132;2023-08-06T08:22:49;14.70;99.90
8178;DHT22;4130;48.740;9.132;2023-08-06T08:25:16;14.70;99.90
8178;DHT22;4130;48.740;9.132;2023-08-06T08:27:43;16.30;99.90
8178;DHT22;4130;48.740;9.132;2023-08-06T08:30:12;14.80;99.90
8178;DHT22;4130;48.740;9.132;2023-08-06T08:32:38;14.80;99.90
8178;DHT22;4130;48.740;9.132;2023-08-06T08:35:05;14.70;99.90
8178;DHT22;4130;48.740;9.132;2023-08-06T08:37:32;14.50;99.90
8178;DHT22;4130;48.740;9.132;2023-08-06T08:39:59;14.50;99.90
8178;DHT22;4130;48.740;9.132;2023-08-06T08:42:27;14.90;99.90
8178;DHT22;4130;48.740;9.132;2023-08-06T08:44:54;14.60;99.90
8178;DHT22;4130;48.740;9.132;2023-08-06T08:47:24;15.60;99.90
8178;DHT22;4130;48.740;9.132;2023-08-06T08:49:52;14.70;99.90
8178;DHT22;4130;48.740;9.132;2023-08-06T08:52:21;14.70;99.90
8178;DHT22;4130;48.740;9.132;2023-08-06T08:54:49;14.90;99.90
8178;DHT22;4130;48.740;9.132;2023-08-06T08:57:18;15.00;99.90
8178;DHT22;4130;48.740;9.132;2023-08-06T08:59:45;15.00;99.90
8178;DHT22;4130;48.740;9.132;2023-08-06T09:02:13;15.60;99.90
8178;DHT22;4130;48.740;9.132;2023-08-06T09:04:43;15.30;99.90
8178;DHT22;4130;48.740;9.132;2023-08-06T09:07:13;15.40;99.90
8178;DHT22;4130;48.740;9.132;2023-08-06T09:09:49;15.40;99.90
8178;DHT22;4130;48.740;9.132;2023-08-06T09:12:16;15.50;99.90
8178;DHT22;4130;48.740;9.132;2023-08-06T09:14:43;15.80;99.90
8178;DHT22;4130;48.740;9.132;2023-08-06T09:17:10;16.20;99.90
8178;DHT22;4130;48.740;9.132;2023-08-06T09:19:37;16.40;99.90
8178;DHT22;4130;48.740;9.132;2023-08-06T09:22:05;16.50;99.90
8178;DHT22;4130;48.740;9.132;2023-08-06T09:24:38;16.40;99.90
8178;DHT22;4130;48.740;9.132;2023-08-06T09:27:10;16.40;99.90
8178;DHT22;4130;48.740;9.132;2023-08-06T09:29:40;16.50;99.90
8178;DHT22;4130;48.740;9.132;2023-08-06T09:32:07;16.20;99.90
8178;DHT22;4130;48.740;9.132;2023-08-06T09:34:38;15.90;99.90
8178;DHT22;4130;48.740;9.132;2023-08-06T09:37:08;16.00;99.90
8178;DHT22;4130;48.740;9.132;2023-08-06T09:39:38;16.10;99.90
8178;DHT22;4130;48.740;9.132;2023-08-06T09:42:05;16.00;99.90
8178;DHT22;4130;48.740;9.132;2023-08-06T09:44:33;15.90;99.90
8178;DHT22;4130;48.740;9.132;2023-08-06T09:47:01;16.00;99.90
8178;DHT22;4130;48.740;9.132;2023-08-06T09:49:39;16.10;99.90
8178;DHT22;4130;48.740;9.132;2023-08-06T09:52:11;16.10;99.90
8178;DHT22;4130;48.740;9.132;2023-08-06T09:54:38;16.30;99.90
8178;DHT22;4130;48.740;9.132;2023-08-06T09:57:05;16.20;99.90
8178;DHT22;4130;48.740;9.132;2023-08-06T09:59:32;16.10;99.90
8178;DHT22;4130;48.740;9.132;2023-08-06T10:01:59;15.70;99.90
8178;DHT22;4130;48.740;9.132;2023-08-06T10:04:26;15.40;99.90
8178;DHT22;4130;48.740;9.132;2023-08-06T10:06:55;15.40;99.90
8178;DHT22;4130;48.740;9.132;2023-08-06T10:09:25;15.20;99.90
8178;DHT22;4130;48.740;9.132;2023-08-06T10:11:52;15.00;99.90
8178;DHT22;4130;48.740;9.132;2023-08-06T10:14:23;15.70;99.90
8178;DHT22;4130;48.740;9.132;2023-08-06T10:16:51;14.80;99.90
8178;DHT22;4130;48.740;9.132;2023-08-06T10:19:20;14.90;99.90
8178;DHT22;4130;48.740;9.132;2023-08-06T10:22:09;15.10;99.90
8178;DHT22;4130;48.740;9.132;2023-08-06T10:24:48;14.90;99.90
8178;DHT22;4130;48.740;9.132;2023-08-06T10:27:20;14.70;99.90
8178;DHT22;4130;48.740;9.132;2023-08-06T10:29:47;14.10;99.90
8178;DHT22;4130;48.740;9.132;2023-08-06T10:32:15;14.90;99.90
8178;DHT22;4130;48.740;9.132;2023-08-06T10:34:57;14.90;99.90
8178;DHT22;4130;48.740;9.132;2023-08-06T10:37:25;15.00;99.90
8178;DHT22;4130;48.740;9.132;2023-08-06T10:40:03;14.80;99.90
8178;DHT22;4130;48.740;9.132;2023-08-06T10:42:32;14.70;99.90
8178;DHT22;4130;48.740;9.132;2023-08-06T10:45:12;15.00;99.90
8178;DHT22;4130;48.740;9.132;2023-08-06T10:47:39;15.10;99.90
8178;DHT22;4130;48.740;9.132;2023-08-06T10:50:07;15.20;99.90
8178;DHT22;4130;48.740;9.132;2023-08-06T10:52:35;15.20;99.90
8178;DHT22;4130;48.740;9.132;2023-08-06T10:55:04;15.20;99.90
8178;DHT22;4130;48.740;9.132;2023-08-06T10:57:31;15.10;99.90
8178;DHT22;4130;48.740;9.132;2023-08-06T10:59:57;15.30;99.90
8178;DHT22;4130;48.740;9.132;2023-08-06T11:02:27;15.10;99.90
8178;DHT22;4130;48.740;9.132;2023-08-06T11:04:54;15.10;99.90
8178;DHT22;4130;48.740;9.132;2023-08-06T11:07:21;15.40;99.90
8178;DHT22;4130;48.740;9.132;2023-08-06T11:09:50;15.30;99.90
8178;DHT22;4130;48.740;9.132;2023-08-06T11:12:20;15.20;99.90
8178;DHT22;4130;48.740;9.132;2023-08-06T11:14:50;15.00;99.90
8178;DHT22;4130;48.740;9.132;2023-08-06T11:17:17;14.70;99.90
8178;DHT22;4130;48.740;9.132;2023-08-06T11:19:44;14.50;99.90
8178;DHT22;4130;48.740;9.132;2023-08-06T11:22:11;14.30;99.90
8178;DHT22;4130;48.740;9.132;2023-08-06T11:24:38;14.30;99.90
8178;DHT22;4130;48.740;9.132;2023-08-06T11:27:11;14.30;99.90
8178;DHT22;4130;48.740;9.132;2023-08-06T11:29:40;14.30;99.90
8178;DHT22;4130;48.740;9.132;2023-08-06T11:32:08;14.80;99.90
8178;DHT22;4130;48.740;9.132;2023-08-06T11:34:35;15.20;99.90
8178;DHT22;4130;48.740;9.132;2023-08-06T11:37:03;15.30;99.90
8178;DHT22;4130;48.740;9.132;2023-08-06T11:39:31;15.00;99.90
8178;DHT22;4130;48.740;9.132;2023-08-06T11:41:57;14.90;99.90
8178;DHT22;4130;48.740;9.132;2023-08-06T11:44:26;15.80;99.90
8178;DHT22;4130;48.740;9.132;2023-08-06T11:46:54;14.90;99.90
8178;DHT22;4130;48.740;9.132;2023-08-06T11:49:37;15.00;99.90
8178;DHT22;4130;48.740;9.132;2023-08-06T11:52:09;14.90;99.90
8178;DHT22;4130;48.740;9.132;2023-08-06T11:54:36;14.90;99.90
8178;DHT22;4130;48.740;9.132;2023-08-06T11:57:04;14.90;99.90
8178;DHT22;4130;48.740;9.132;2023-08-06T11:59:32;14.80;99.90
8178;DHT22;4130;48.740;9.132;2023-08-06T12:02:01;14.80;99.90
8178;DHT22;4130;48.740;9.132;2023-08-06T12:04:30;16.20;99.90
8178;DHT22;4130;48.740;9.132;2023-08-06T12:07:04;14.80;99.90
8178;DHT22;4130;48.740;9.132;2023-08-06T12:09:31;14.90;99.90
8178;DHT22;4130;48.740;9.132;2023-08-06T12:11:59;15.00;99.90
8178;DHT22;4130;48.740;9.132;2023-08-06T12:14:25;15.00;99.90
8178;DHT22;4130;48.740;9.132;2023-08-06T12:16:52;16.20;99.90
8178;DHT22;4130;48.740;9.132;2023-08-06T12:19:20;15.10;99.90
8178;DHT22;4130;48.740;9.132;2023-08-06T12:22:06;15.00;99.90
8178;DHT22;4130;48.740;9.132;2023-08-06T12:24:34;15.10;99.90
8178;DHT22;4130;48.740;9.132;2023-08-06T12:27:00;15.00;99.90
8178;DHT22;4130;48.740;9.132;2023-08-06T12:29:28;15.10;99.90
8178;DHT22;4130;48.740;9.132;2023-08-06T12:31:56;15.20;99.90
8178;DHT22;4130;48.740;9.132;2023-08-06T12:34:23;15.30;99.90
8178;DHT22;4130;48.740;9.132;2023-08-06T12:36:50;15.40;99.90
8178;DHT22;4130;48.740;9.132;2023-08-06T12:39:19;15.50;99.90
8178;DHT22;4130;48.740;9.132;2023-08-06T12:41:46;15.70;99.90
8178;DHT22;4130;48.740;9.132;2023-08-06T12:44:13;16.00;99.90
8178;DHT22;4130;48.740;9.132;2023-08-06T12:46:39;16.10;99.90
8178;DHT22;4130;48.740;9.132;2023-08-06T12:49:06;16.30;99.90
8178;DHT22;4130;48.740;9.132;2023-08-06T12:51:33;16.50;99.90
8178;DHT22;4130;48.740;9.132;2023-08-06T12:54:00;16.40;99.90
8178;DHT22;4130;48.740;9.132;2023-08-06T12:56:29;16.50;99.90
8178;DHT22;4130;48.740;9.132;2023-08-06T12:58:56;16.50;99.90
8178;DHT22;4130;48.740;9.132;2023-08-06T13:01:23;16.50;99.90
8178;DHT22;4130;48.740;9.132;2023-08-06T13:03:49;16.40;99.90
8178;DHT22;4130;48.740;9.132;2023-08-06T13:06:16;16.10;99.90
8178;DHT22;4130;48.740;9.132;2023-08-06T13:08:43;15.90;99.90
8178;DHT22;4130;48.740;9.132;2023-08-06T13:11:10;15.80;99.90
8178;DHT22;4130;48.740;9.132;2023-08-06T13:13:38;15.90;99.90
8178;DHT22;4130;48.740;9.132;2023-08-06T13:16:05;16.00;99.90
8178;DHT22;4130;48.740;9.132;2023-08-06T13:18:32;16.10;99.90
8178;DHT22;4130;48.740;9.132;2023-08-06T13:20:59;16.40;99.90
8178;DHT22;4130;48.740;9.132;2023-08-06T13:23:26;16.60;99.90
8178;DHT22;4130;48.740;9.132;2023-08-06T13:25:53;16.80;99.90
8178;DHT22;4130;48.740;9.132;2023-08-06T13:28:21;17.00;99.90
8178;DHT22;4130;48.740;9.132;2023-08-06T13:30:49;17.30;99.90
8178;DHT22;4130;48.740;9.132;2023-08-06T13:33:16;17.50;99.90
8178;DHT22;4130;48.740;9.132;2023-08-06T13:35:43;17.30;99.90
8178;DHT22;4130;48.740;9.132;2023-08-06T13:38:10;17.10;99.90
8178;DHT22;4130;48.740;9.132;2023-08-06T13:40:37;16.90;99.90
8178;DHT22;4130;48.740;9.132;2023-08-06T13:43:04;16.70;99.90
8178;DHT22;4130;48.740;9.132;2023-08-06T13:45:31;16.60;99.90
8178;DHT22;4130;48.740;9.132;2023-08-06T13:48:01;16.30;99.90
8178;DHT22;4130;48.740;9.132;2023-08-06T13:50:29;16.20;99.90
8178;DHT22;4130;48.740;9.132;2023-08-06T13:52:56;16.30;99.90
8178;DHT22;4130;48.740;9.132;2023-08-06T13:55:23;16.50;99.90
8178;DHT22;4130;48.740;9.132;2023-08-06T13:57:50;16.70;99.90
8178;DHT22;4130;48.740;9.132;2023-08-06T14:00:17;16.60;99.90
8178;DHT22;4130;48.740;9.132;2023-08-06T14:02:44;16.70;99.90
8178;DHT22;4130;48.740;9.132;2023-08-06T14:05:12;16.80;99.90
8178;DHT22;4130;48.740;9.132;2023-08-06T14:07:40;16.90;99.90
8178;DHT22;4130;48.740;9.132;2023-08-06T14:10:07;16.90;99.90
8178;DHT22;4130;48.740;9.132;2023-08-06T14:12:35;17.00;99.90
8178;DHT22;4130;48.740;9.132;2023-08-06T14:15:02;17.00;99.90
8178;DHT22;4130;48.740;9.132;2023-08-06T14:17:29;16.90;99.90
8178;DHT22;4130;48.740;9.132;2023-08-06T14:19:56;16.90;99.90
8178;DHT22;4130;48.740;9.132;2023-08-06T14:22:25;17.00;99.90
8178;DHT22;4130;48.740;9.132;2023-08-06T14:24:52;17.10;99.90
8178;DHT22;4130;48.740;9.132;2023-08-06T14:27:19;17.20;99.90
8178;DHT22;4130;48.740;9.132;2023-08-06T14:29:46;16.90;99.90
8178;DHT22;4130;48.740;9.132;2023-08-06T14:32:12;16.80;99.90
8178;DHT22;4130;48.740;9.132;2023-08-06T14:34:43;16.90;99.90
8178;DHT22;4130;48.740;9.132;2023-08-06T14:37:10;16.80;99.90
8178;DHT22;4130;48.740;9.132;2023-08-06T14:39:38;16.70;99.90
8178;DHT22;4130;48.740;9.132;2023-08-06T14:42:05;16.50;99.90
8178;DHT22;4130;48.740;9.132;2023-08-06T14:44:32;16.40;99.90
8178;DHT22;4130;48.740;9.132;2023-08-06T14:46:59;16.30;99.90
8178;DHT22;4130;48.740;9.132;2023-08-06T14:49:26;16.00;99.90
8178;DHT22;4130;48.740;9.132;2023-08-06T14:51:53;15.70;99.90
8178;DHT22;4130;48.740;9.132;2023-08-06T14:54:20;15.60;99.90
8178;DHT22;4130;48.740;9.132;2023-08-06T14:56:48;15.60;99.90
8178;DHT22;4130;48.740;9.132;2023-08-06T14:59:15;15.60;99.90
8178;DHT22;4130;48.740;9.132;2023-08-06T15:01:42;15.60;99.90
8178;DHT22;4130;48.740;9.132;2023-08-06T15:04:09;15.60;99.90
8178;DHT22;4130;48.740;9.132;2023-08-06T15:09:58;15.40;99.90
8178;DHT22;4130;48.740;9.132;2023-08-06T15:12:26;15.40;99.90
8178;DHT22;4130;48.740;9.132;2023-08-06T15:14:53;15.60;99.90
8178;DHT22;4130;48.740;9.132;2023-08-06T15:17:22;15.80;99.90
8178;DHT22;4130;48.740;9.132;2023-08-06T15:19:49;16.10;99.90
8178;DHT22;4130;48.740;9.132;2023-08-06T15:22:16;16.40;99.90
8178;DHT22;4130;48.740;9.132;2023-08-06T15:24:43;16.50;99.90
8178;DHT22;4130;48.740;9.132;2023-08-06T15:27:11;16.70;99.90
8178;DHT22;4130;48.740;9.132;2023-08-06T15:29:40;16.90;99.90
8178;DHT22;4130;48.740;9.132;2023-08-06T15:32:08;16.80;99.90
8178;DHT22;4130;48.740;9.132;2023-08-06T15:34:35;16.70;99.90
8178;DHT22;4130;48.740;9.132;2023-08-06T15:37:02;16.70;99.90
8178;DHT22;4130;48.740;9.132;2023-08-06T15:39:29;16.60;99.90
8178;DHT22;4130;48.740;9.132;2023-08-06T15:41:57;16.60;99.90
8178;DHT22;4130;48.740;9.132;2023-08-06T15:44:23;16.60;99.90
8178;DHT22;4130;48.740;9.132;2023-08-06T15:46:52;16.40;99.90
8178;DHT22;4130;48.740;9.132;2023-08-06T15:49:19;16.40;99.90
8178;DHT22;4130;48.740;9.132;2023-08-06T15:51:46;16.40;99.90
8178;DHT22;4130;48.740;9.132;2023-08-06T15:54:12;16.50;99.90
8178;DHT22;4130;48.740;9.132;2023-08-06T15:56:39;16.40;99.90
8178;DHT22;4130;48.740;9.132;2023-08-06T15:59:23;16.50;99.90
8178;DHT22;4130;48.740;9.132;2023-08-06T16:01:52;16.40;99.90
8178;DHT22;4130;48.740;9.132;2023-08-06T16:04:20;16.20;99.90
8178;DHT22;4130;48.740;9.132;2023-08-06T16:06:47;16.10;99.90
8178;DHT22;4130;48.740;9.132;2023-08-06T16:09:14;16.20;99.90